sensor_id;sensor_type;location;lat;lon;timestamp;P1;durP1;ratioP1;P2;durP2;ratioP2
15055;SDS011;7626;42.674;23.284;2023-05-10T00:00:33;4.00;;;3.70;;
15055;SDS011;7626;42.674;23.284;2023-05-10T00:03:00;4.57;;;4.17;;
15055;SDS011;7626;42.674;23.284;2023-05-10T00:05:30;4.53;;;4.13;;
15055;SDS011;7626;42.674;23.284;2023-05-10T00:07:58;5.10;;;4.70;;
15055;SDS011;7626;42.674;23.284;2023-05-10T00:10:39;5.03;;;4.63;;
15055;SDS011;7626;42.674;23.284;2023-05-10T00:13:06;4.97;;;4.57;;
15055;SDS011;7626;42.674;23.284;2023-05-10T00:15:33;5.00;;;4.60;;
15055;SDS011;7626;42.674;23.284;2023-05-10T00:18:02;4.67;;;4.27;;
15055;SDS011;7626;42.674;23.284;2023-05-10T00:20:30;4.43;;;4.03;;
15055;SDS011;7626;42.674;23.284;2023-05-10T00:22:57;5.20;;;4.70;;
15055;SDS011;7626;42.674;23.284;2023-05-10T00:25:25;4.50;;;4.17;;
15055;SDS011;7626;42.674;23.284;2023-05-10T00:27:57;4.30;;;4.00;;
15055;SDS011;7626;42.674;23.284;2023-05-10T00:30:27;4.23;;;3.93;;
15055;SDS011;7626;42.674;23.284;2023-05-10T00:32:55;4.57;;;4.17;;
15055;SDS011;7626;42.674;23.284;2023-05-10T00:35:23;4.43;;;4.10;;
15055;SDS011;7626;42.674;23.284;2023-05-10T00:37:51;4.43;;;4.13;;
15055;SDS011;7626;42.674;23.284;2023-05-10T00:40:18;4.97;;;4.57;;
15055;SDS011;7626;42.674;23.284;2023-05-10T00:42:47;4.67;;;4.37;;
15055;SDS011;7626;42.674;23.284;2023-05-10T00:45:16;5.17;;;4.77;;
15055;SDS011;7626;42.674;23.284;2023-05-10T00:47:43;5.07;;;4.67;;
15055;SDS011;7626;42.674;23.284;2023-05-10T00:50:09;4.97;;;4.47;;
15055;SDS011;7626;42.674;23.284;2023-05-10T00:52:38;5.00;;;4.60;;
15055;SDS011;7626;42.674;23.284;2023-05-10T00:55:06;5.30;;;4.90;;
15055;SDS011;7626;42.674;23.284;2023-05-10T00:57:36;4.90;;;4.50;;
15055;SDS011;7626;42.674;23.284;2023-05-10T01:00:05;5.50;;;5.10;;
15055;SDS011;7626;42.674;23.284;2023-05-10T01:02:34;5.50;;;5.10;;
15055;SDS011;7626;42.674;23.284;2023-05-10T01:05:02;5.20;;;4.80;;
15055;SDS011;7626;42.674;23.284;2023-05-10T01:07:31;5.20;;;4.70;;
15055;SDS011;7626;42.674;23.284;2023-05-10T01:09:59;5.20;;;4.80;;
15055;SDS011;7626;42.674;23.284;2023-05-10T01:12:27;5.43;;;4.93;;
15055;SDS011;7626;42.674;23.284;2023-05-10T01:14:55;5.10;;;4.70;;
15055;SDS011;7626;42.674;23.284;2023-05-10T01:17:23;5.30;;;4.90;;
15055;SDS011;7626;42.674;23.284;2023-05-10T01:19:57;4.90;;;4.60;;
15055;SDS011;7626;42.674;23.284;2023-05-10T01:22:37;5.30;;;4.80;;
15055;SDS011;7626;42.674;23.284;2023-05-10T01:25:21;5.83;;;5.43;;
15055;SDS011;7626;42.674;23.284;2023-05-10T01:28:01;5.73;;;5.23;;
15055;SDS011;7626;42.674;23.284;2023-05-10T01:33:28;5.30;;;4.90;;
15055;SDS011;7626;42.674;23.284;2023-05-10T01:35:59;4.97;;;4.57;;
15055;SDS011;7626;42.674;23.284;2023-05-10T01:38:38;5.40;;;5.00;;
15055;SDS011;7626;42.674;23.284;2023-05-10T01:41:12;4.73;;;4.33;;
15055;SDS011;7626;42.674;23.284;2023-05-10T01:43:43;4.80;;;4.40;;
15055;SDS011;7626;42.674;23.284;2023-05-10T01:46:14;5.07;;;4.57;;
15055;SDS011;7626;42.674;23.284;2023-05-10T01:48:47;5.13;;;4.73;;
15055;SDS011;7626;42.674;23.284;2023-05-10T01:51:16;4.50;;;4.10;;
15055;SDS011;7626;42.674;23.284;2023-05-10T01:53:45;4.20;;;3.90;;
15055;SDS011;7626;42.674;23.284;2023-05-10T01:56:14;3.87;;;3.60;;
15055;SDS011;7626;42.674;23.284;2023-05-10T01:58:43;4.33;;;4.03;;
15055;SDS011;7626;42.674;23.284;2023-05-10T02:01:12;4.17;;;3.77;;
15055;SDS011;7626;42.674;23.284;2023-05-10T02:03:40;3.90;;;3.60;;
15055;SDS011;7626;42.674;23.284;2023-05-10T02:06:10;4.03;;;3.70;;
15055;SDS011;7626;42.674;23.284;2023-05-10T02:08:40;3.90;;;3.60;;
15055;SDS011;7626;42.674;23.284;2023-05-10T02:11:10;4.07;;;3.77;;
15055;SDS011;7626;42.674;23.284;2023-05-10T02:13:39;3.63;;;3.37;;
15055;SDS011;7626;42.674;23.284;2023-05-10T02:16:08;4.07;;;3.73;;
15055;SDS011;7626;42.674;23.284;2023-05-10T02:18:37;3.97;;;3.63;;
15055;SDS011;7626;42.674;23.284;2023-05-10T02:21:14;3.73;;;3.43;;
15055;SDS011;7626;42.674;23.284;2023-05-10T02:23:43;3.93;;;3.63;;
15055;SDS011;7626;42.674;23.284;2023-05-10T02:26:11;4.10;;;3.57;;
15055;SDS011;7626;42.674;23.284;2023-05-10T02:28:40;4.37;;;3.90;;
15055;SDS011;7626;42.674;23.284;2023-05-10T02:31:08;4.20;;;3.87;;
15055;SDS011;7626;42.674;23.284;2023-05-10T02:33:38;4.57;;;4.17;;
15055;SDS011;7626;42.674;23.284;2023-05-10T02:36:09;4.70;;;4.30;;
15055;SDS011;7626;42.674;23.284;2023-05-10T02:38:44;4.43;;;4.10;;
15055;SDS011;7626;42.674;23.284;2023-05-10T02:41:12;4.40;;;4.00;;
15055;SDS011;7626;42.674;23.284;2023-05-10T02:43:42;4.40;;;4.00;;
15055;SDS011;7626;42.674;23.284;2023-05-10T02:46:10;5.20;;;4.50;;
15055;SDS011;7626;42.674;23.284;2023-05-10T02:48:38;4.97;;;4.57;;
15055;SDS011;7626;42.674;23.284;2023-05-10T02:51:07;4.40;;;4.00;;
15055;SDS011;7626;42.674;23.284;2023-05-10T02:53:46;4.70;;;4.30;;
15055;SDS011;7626;42.674;23.284;2023-05-10T02:56:14;5.90;;;4.60;;
15055;SDS011;7626;42.674;23.284;2023-05-10T02:58:43;4.87;;;4.37;;
15055;SDS011;7626;42.674;23.284;2023-05-10T03:01:11;5.60;;;4.77;;
15055;SDS011;7626;42.674;23.284;2023-05-10T03:03:39;6.13;;;5.03;;
15055;SDS011;7626;42.674;23.284;2023-05-10T03:06:09;5.37;;;4.57;;
15055;SDS011;7626;42.674;23.284;2023-05-10T03:08:39;4.93;;;4.53;;
15055;SDS011;7626;42.674;23.284;2023-05-10T03:11:13;5.30;;;4.77;;
15055;SDS011;7626;42.674;23.284;2023-05-10T03:13:46;5.10;;;4.70;;
15055;SDS011;7626;42.674;23.284;2023-05-10T03:16:16;5.50;;;4.60;;
15055;SDS011;7626;42.674;23.284;2023-05-10T03:18:50;4.80;;;4.40;;
15055;SDS011;7626;42.674;23.284;2023-05-10T03:21:20;5.43;;;4.87;;
15055;SDS011;7626;42.674;23.284;2023-05-10T03:23:50;5.60;;;5.10;;
15055;SDS011;7626;42.674;23.284;2023-05-10T03:26:22;5.30;;;4.80;;
15055;SDS011;7626;42.674;23.284;2023-05-10T03:28:51;5.80;;;5.20;;
15055;SDS011;7626;42.674;23.284;2023-05-10T03:31:20;5.27;;;4.77;;
15055;SDS011;7626;42.674;23.284;2023-05-10T03:33:48;5.30;;;4.80;;
15055;SDS011;7626;42.674;23.284;2023-05-10T03:36:15;5.03;;;4.53;;
15055;SDS011;7626;42.674;23.284;2023-05-10T03:38:43;5.47;;;4.83;;
15055;SDS011;7626;42.674;23.284;2023-05-10T03:41:11;5.37;;;4.70;;
15055;SDS011;7626;42.674;23.284;2023-05-10T03:43:40;4.80;;;4.40;;
15055;SDS011;7626;42.674;23.284;2023-05-10T03:46:08;5.73;;;5.10;;
15055;SDS011;7626;42.674;23.284;2023-05-10T03:48:39;5.80;;;5.00;;
15055;SDS011;7626;42.674;23.284;2023-05-10T03:51:09;6.47;;;4.70;;
15055;SDS011;7626;42.674;23.284;2023-05-10T03:53:37;5.00;;;4.50;;
15055;SDS011;7626;42.674;23.284;2023-05-10T03:56:04;6.43;;;4.40;;
15055;SDS011;7626;42.674;23.284;2023-05-10T03:58:32;5.57;;;5.03;;
15055;SDS011;7626;42.674;23.284;2023-05-10T04:01:02;5.90;;;4.80;;
15055;SDS011;7626;42.674;23.284;2023-05-10T04:03:28;5.67;;;4.90;;
15055;SDS011;7626;42.674;23.284;2023-05-10T04:05:58;5.70;;;5.00;;
15055;SDS011;7626;42.674;23.284;2023-05-10T04:08:25;6.00;;;5.10;;
15055;SDS011;7626;42.674;23.284;2023-05-10T04:10:54;5.10;;;4.60;;
15055;SDS011;7626;42.674;23.284;2023-05-10T04:13:21;5.20;;;4.70;;
15055;SDS011;7626;42.674;23.284;2023-05-10T04:15:47;4.80;;;4.30;;
15055;SDS011;7626;42.674;23.284;2023-05-10T04:18:15;4.83;;;4.40;;
15055;SDS011;7626;42.674;23.284;2023-05-10T04:20:43;5.10;;;4.70;;
15055;SDS011;7626;42.674;23.284;2023-05-10T04:23:09;5.10;;;4.60;;
15055;SDS011;7626;42.674;23.284;2023-05-10T04:25:36;6.63;;;4.97;;
15055;SDS011;7626;42.674;23.284;2023-05-10T04:28:04;5.47;;;4.87;;
15055;SDS011;7626;42.674;23.284;2023-05-10T04:30:31;5.03;;;4.53;;
15055;SDS011;7626;42.674;23.284;2023-05-10T04:32:59;5.40;;;4.90;;
15055;SDS011;7626;42.674;23.284;2023-05-10T04:35:28;5.27;;;4.77;;
15055;SDS011;7626;42.674;23.284;2023-05-10T04:37:54;5.37;;;4.83;;
15055;SDS011;7626;42.674;23.284;2023-05-10T04:40:23;6.93;;;4.23;;
15055;SDS011;7626;42.674;23.284;2023-05-10T04:42:51;5.07;;;4.57;;
15055;SDS011;7626;42.674;23.284;2023-05-10T04:45:17;5.03;;;4.53;;
15055;SDS011;7626;42.674;23.284;2023-05-10T04:47:45;5.73;;;4.83;;
15055;SDS011;7626;42.674;23.284;2023-05-10T04:50:13;5.20;;;4.70;;
15055;SDS011;7626;42.674;23.284;2023-05-10T04:52:42;5.27;;;4.73;;
15055;SDS011;7626;42.674;23.284;2023-05-10T04:55:10;5.10;;;4.60;;
15055;SDS011;7626;42.674;23.284;2023-05-10T04:57:40;5.97;;;5.47;;
15055;SDS011;7626;42.674;23.284;2023-05-10T05:00:08;5.90;;;5.40;;
15055;SDS011;7626;42.674;23.284;2023-05-10T05:02:38;5.50;;;5.00;;
15055;SDS011;7626;42.674;23.284;2023-05-10T05:05:06;5.63;;;5.13;;
15055;SDS011;7626;42.674;23.284;2023-05-10T05:07:36;5.97;;;5.37;;
15055;SDS011;7626;42.674;23.284;2023-05-10T05:10:05;6.10;;;5.60;;
15055;SDS011;7626;42.674;23.284;2023-05-10T05:12:33;6.20;;;5.27;;
15055;SDS011;7626;42.674;23.284;2023-05-10T05:15:01;6.13;;;5.17;;
15055;SDS011;7626;42.674;23.284;2023-05-10T05:17:30;6.13;;;5.60;;
15055;SDS011;7626;42.674;23.284;2023-05-10T05:19:57;6.57;;;6.07;;
15055;SDS011;7626;42.674;23.284;2023-05-10T05:22:25;6.17;;;5.60;;
15055;SDS011;7626;42.674;23.284;2023-05-10T05:24:52;6.27;;;5.67;;
15055;SDS011;7626;42.674;23.284;2023-05-10T05:27:20;6.07;;;5.57;;
15055;SDS011;7626;42.674;23.284;2023-05-10T05:29:49;6.20;;;5.60;;
15055;SDS011;7626;42.674;23.284;2023-05-10T05:32:16;5.80;;;5.30;;
15055;SDS011;7626;42.674;23.284;2023-05-10T05:34:43;7.37;;;6.27;;
15055;SDS011;7626;42.674;23.284;2023-05-10T05:37:12;7.00;;;6.30;;
15055;SDS011;7626;42.674;23.284;2023-05-10T05:39:38;7.00;;;6.30;;
15055;SDS011;7626;42.674;23.284;2023-05-10T05:42:06;6.77;;;6.10;;
15055;SDS011;7626;42.674;23.284;2023-05-10T05:44:37;7.10;;;5.97;;
15055;SDS011;7626;42.674;23.284;2023-05-10T05:47:04;6.87;;;6.23;;
15055;SDS011;7626;42.674;23.284;2023-05-10T05:49:30;7.00;;;6.30;;
15055;SDS011;7626;42.674;23.284;2023-05-10T05:51:58;7.77;;;6.30;;
15055;SDS011;7626;42.674;23.284;2023-05-10T05:54:25;7.03;;;6.33;;
15055;SDS011;7626;42.674;23.284;2023-05-10T05:56:54;7.27;;;5.93;;
15055;SDS011;7626;42.674;23.284;2023-05-10T05:59:21;7.97;;;7.03;;
15055;SDS011;7626;42.674;23.284;2023-05-10T06:01:49;7.77;;;6.57;;
15055;SDS011;7626;42.674;23.284;2023-05-10T06:04:16;7.20;;;6.60;;
15055;SDS011;7626;42.674;23.284;2023-05-10T06:06:43;7.10;;;6.50;;
15055;SDS011;7626;42.674;23.284;2023-05-10T06:09:10;8.17;;;7.33;;
15055;SDS011;7626;42.674;23.284;2023-05-10T06:11:39;7.83;;;7.03;;
15055;SDS011;7626;42.674;23.284;2023-05-10T06:14:06;8.60;;;7.80;;
15055;SDS011;7626;42.674;23.284;2023-05-10T06:16:33;8.43;;;7.63;;
15055;SDS011;7626;42.674;23.284;2023-05-10T06:19:02;8.60;;;7.80;;
15055;SDS011;7626;42.674;23.284;2023-05-10T06:21:30;8.33;;;7.53;;
15055;SDS011;7626;42.674;23.284;2023-05-10T06:23:58;8.80;;;7.90;;
15055;SDS011;7626;42.674;23.284;2023-05-10T06:26:25;9.70;;;8.10;;
15055;SDS011;7626;42.674;23.284;2023-05-10T06:28:52;8.43;;;7.63;;
15055;SDS011;7626;42.674;23.284;2023-05-10T06:31:18;8.93;;;8.13;;
15055;SDS011;7626;42.674;23.284;2023-05-10T06:33:45;8.37;;;7.67;;
15055;SDS011;7626;42.674;23.284;2023-05-10T06:36:12;9.30;;;8.37;;
15055;SDS011;7626;42.674;23.284;2023-05-10T06:38:39;9.10;;;8.20;;
15055;SDS011;7626;42.674;23.284;2023-05-10T06:41:07;9.10;;;8.20;;
15055;SDS011;7626;42.674;23.284;2023-05-10T06:43:35;9.40;;;8.00;;
15055;SDS011;7626;42.674;23.284;2023-05-10T06:46:06;8.87;;;7.87;;
15055;SDS011;7626;42.674;23.284;2023-05-10T06:48:36;9.53;;;8.53;;
15055;SDS011;7626;42.674;23.284;2023-05-10T06:51:04;8.63;;;7.83;;
15055;SDS011;7626;42.674;23.284;2023-05-10T06:53:34;9.60;;;8.60;;
15055;SDS011;7626;42.674;23.284;2023-05-10T06:56:02;9.57;;;8.67;;
15055;SDS011;7626;42.674;23.284;2023-05-10T06:58:28;9.03;;;8.20;;
15055;SDS011;7626;42.674;23.284;2023-05-10T07:01:01;9.73;;;8.50;;
15055;SDS011;7626;42.674;23.284;2023-05-10T07:03:28;9.17;;;8.37;;
15055;SDS011;7626;42.674;23.284;2023-05-10T07:05:59;9.47;;;8.60;;
15055;SDS011;7626;42.674;23.284;2023-05-10T07:08:30;9.67;;;8.77;;
15055;SDS011;7626;42.674;23.284;2023-05-10T07:11:03;10.77;;;8.67;;
15055;SDS011;7626;42.674;23.284;2023-05-10T07:13:31;9.23;;;8.33;;
15055;SDS011;7626;42.674;23.284;2023-05-10T07:15:59;10.77;;;8.87;;
15055;SDS011;7626;42.674;23.284;2023-05-10T07:18:28;9.50;;;8.60;;
15055;SDS011;7626;42.674;23.284;2023-05-10T07:21:12;9.67;;;8.67;;
15055;SDS011;7626;42.674;23.284;2023-05-10T07:23:38;9.50;;;8.23;;
15055;SDS011;7626;42.674;23.284;2023-05-10T07:28:53;9.43;;;8.53;;
15055;SDS011;7626;42.674;23.284;2023-05-10T07:31:22;9.60;;;8.70;;
15055;SDS011;7626;42.674;23.284;2023-05-10T07:33:48;10.30;;;9.30;;
15055;SDS011;7626;42.674;23.284;2023-05-10T07:36:15;11.90;;;10.60;;
15055;SDS011;7626;42.674;23.284;2023-05-10T07:38:42;11.70;;;10.03;;
15055;SDS011;7626;42.674;23.284;2023-05-10T07:41:11;11.07;;;10.00;;
15055;SDS011;7626;42.674;23.284;2023-05-10T07:43:37;10.97;;;9.90;;
15055;SDS011;7626;42.674;23.284;2023-05-10T07:46:06;10.37;;;9.27;;
15055;SDS011;7626;42.674;23.284;2023-05-10T07:48:36;10.47;;;9.40;;
15055;SDS011;7626;42.674;23.284;2023-05-10T07:51:03;10.70;;;9.60;;
15055;SDS011;7626;42.674;23.284;2023-05-10T07:53:31;12.63;;;9.50;;
15055;SDS011;7626;42.674;23.284;2023-05-10T07:55:59;11.53;;;9.43;;
15055;SDS011;7626;42.674;23.284;2023-05-10T07:58:45;10.17;;;9.17;;
15055;SDS011;7626;42.674;23.284;2023-05-10T08:01:13;11.07;;;10.00;;
15055;SDS011;7626;42.674;23.284;2023-05-10T08:03:40;11.53;;;10.37;;
15055;SDS011;7626;42.674;23.284;2023-05-10T08:06:08;10.97;;;9.70;;
15055;SDS011;7626;42.674;23.284;2023-05-10T08:08:34;10.97;;;9.87;;
15055;SDS011;7626;42.674;23.284;2023-05-10T08:11:03;10.97;;;9.97;;
15055;SDS011;7626;42.674;23.284;2023-05-10T08:13:29;11.33;;;10.10;;
15055;SDS011;7626;42.674;23.284;2023-05-10T08:15:56;10.80;;;9.80;;
15055;SDS011;7626;42.674;23.284;2023-05-10T08:18:24;10.87;;;9.73;;
15055;SDS011;7626;42.674;23.284;2023-05-10T08:20:51;11.10;;;9.73;;
15055;SDS011;7626;42.674;23.284;2023-05-10T08:23:18;10.93;;;9.83;;
15055;SDS011;7626;42.674;23.284;2023-05-10T08:25:47;10.70;;;9.57;;
15055;SDS011;7626;42.674;23.284;2023-05-10T08:28:13;10.93;;;9.83;;
15055;SDS011;7626;42.674;23.284;2023-05-10T08:30:40;10.67;;;9.73;;
15055;SDS011;7626;42.674;23.284;2023-05-10T08:33:07;11.10;;;9.73;;
15055;SDS011;7626;42.674;23.284;2023-05-10T08:35:35;10.93;;;9.93;;
15055;SDS011;7626;42.674;23.284;2023-05-10T08:38:03;10.57;;;9.57;;
15055;SDS011;7626;42.674;23.284;2023-05-10T08:40:31;10.73;;;9.50;;
15055;SDS011;7626;42.674;23.284;2023-05-10T08:43:01;9.90;;;8.90;;
15055;SDS011;7626;42.674;23.284;2023-05-10T08:45:31;10.33;;;9.43;;
15055;SDS011;7626;42.674;23.284;2023-05-10T08:47:59;10.33;;;9.43;;
15055;SDS011;7626;42.674;23.284;2023-05-10T08:50:28;11.13;;;10.03;;
15055;SDS011;7626;42.674;23.284;2023-05-10T08:52:59;9.67;;;8.87;;
15055;SDS011;7626;42.674;23.284;2023-05-10T08:55:27;10.13;;;9.23;;
15055;SDS011;7626;42.674;23.284;2023-05-10T08:57:55;10.20;;;9.30;;
15055;SDS011;7626;42.674;23.284;2023-05-10T09:00:22;9.80;;;8.83;;
15055;SDS011;7626;42.674;23.284;2023-05-10T09:02:49;10.53;;;9.43;;
15055;SDS011;7626;42.674;23.284;2023-05-10T09:05:16;9.90;;;8.90;;
15055;SDS011;7626;42.674;23.284;2023-05-10T09:07:43;10.20;;;9.30;;
15055;SDS011;7626;42.674;23.284;2023-05-10T09:10:13;10.23;;;9.23;;
15055;SDS011;7626;42.674;23.284;2023-05-10T09:12:41;11.30;;;10.10;;
15055;SDS011;7626;42.674;23.284;2023-05-10T09:15:09;9.93;;;9.07;;
15055;SDS011;7626;42.674;23.284;2023-05-10T09:17:36;10.13;;;9.13;;
15055;SDS011;7626;42.674;23.284;2023-05-10T09:20:04;10.63;;;9.67;;
15055;SDS011;7626;42.674;23.284;2023-05-10T09:22:31;9.70;;;8.90;;
15055;SDS011;7626;42.674;23.284;2023-05-10T09:25:05;10.90;;;9.90;;
15055;SDS011;7626;42.674;23.284;2023-05-10T09:27:33;11.33;;;10.33;;
15055;SDS011;7626;42.674;23.284;2023-05-10T09:30:01;11.17;;;10.17;;
15055;SDS011;7626;42.674;23.284;2023-05-10T09:32:36;11.13;;;10.13;;
15055;SDS011;7626;42.674;23.284;2023-05-10T09:35:06;11.50;;;10.40;;
15055;SDS011;7626;42.674;23.284;2023-05-10T09:37:44;10.63;;;9.63;;
15055;SDS011;7626;42.674;23.284;2023-05-10T09:40:11;11.50;;;10.40;;
15055;SDS011;7626;42.674;23.284;2023-05-10T09:42:39;10.67;;;9.67;;
15055;SDS011;7626;42.674;23.284;2023-05-10T09:45:07;11.20;;;10.20;;
15055;SDS011;7626;42.674;23.284;2023-05-10T09:47:33;11.03;;;10.03;;
15055;SDS011;7626;42.674;23.284;2023-05-10T09:50:01;11.17;;;10.07;;
15055;SDS011;7626;42.674;23.284;2023-05-10T09:52:29;11.70;;;10.60;;
15055;SDS011;7626;42.674;23.284;2023-05-10T09:54:55;11.17;;;10.07;;
15055;SDS011;7626;42.674;23.284;2023-05-10T09:57:24;10.80;;;9.80;;
15055;SDS011;7626;42.674;23.284;2023-05-10T09:59:58;11.13;;;10.03;;
15055;SDS011;7626;42.674;23.284;2023-05-10T10:02:31;11.07;;;10.07;;
15055;SDS011;7626;42.674;23.284;2023-05-10T10:04:59;10.47;;;9.47;;
15055;SDS011;7626;42.674;23.284;2023-05-10T10:07:28;10.37;;;9.47;;
15055;SDS011;7626;42.674;23.284;2023-05-10T10:09:56;10.87;;;9.93;;
15055;SDS011;7626;42.674;23.284;2023-05-10T10:12:27;10.50;;;9.60;;
15055;SDS011;7626;42.674;23.284;2023-05-10T10:14:57;11.57;;;10.40;;
15055;SDS011;7626;42.674;23.284;2023-05-10T10:17:27;13.37;;;10.33;;
15055;SDS011;7626;42.674;23.284;2023-05-10T10:19:55;11.20;;;10.10;;
15055;SDS011;7626;42.674;23.284;2023-05-10T10:22:24;10.73;;;9.63;;
15055;SDS011;7626;42.674;23.284;2023-05-10T10:24:54;11.23;;;10.10;;
15055;SDS011;7626;42.674;23.284;2023-05-10T10:27:23;10.70;;;9.70;;
15055;SDS011;7626;42.674;23.284;2023-05-10T10:30:00;10.23;;;9.23;;
15055;SDS011;7626;42.674;23.284;2023-05-10T10:32:32;10.17;;;9.17;;
15055;SDS011;7626;42.674;23.284;2023-05-10T10:35:03;10.83;;;9.77;;
15055;SDS011;7626;42.674;23.284;2023-05-10T10:37:44;10.87;;;9.80;;
15055;SDS011;7626;42.674;23.284;2023-05-10T10:40:24;9.67;;;8.67;;
15055;SDS011;7626;42.674;23.284;2023-05-10T10:42:56;9.90;;;8.97;;
15055;SDS011;7626;42.674;23.284;2023-05-10T10:45:28;11.47;;;9.17;;
15055;SDS011;7626;42.674;23.284;2023-05-10T10:50:46;9.90;;;8.90;;
15055;SDS011;7626;42.674;23.284;2023-05-10T10:53:14;9.80;;;8.80;;
15055;SDS011;7626;42.674;23.284;2023-05-10T10:55:48;8.83;;;8.13;;
15055;SDS011;7626;42.674;23.284;2023-05-10T10:58:28;8.90;;;8.00;;
15055;SDS011;7626;42.674;23.284;2023-05-10T11:06:34;8.60;;;7.90;;
15055;SDS011;7626;42.674;23.284;2023-05-10T11:09:04;8.70;;;7.90;;
15055;SDS011;7626;42.674;23.284;2023-05-10T11:11:33;9.10;;;8.30;;
15055;SDS011;7626;42.674;23.284;2023-05-10T11:14:02;10.03;;;9.03;;
15055;SDS011;7626;42.674;23.284;2023-05-10T11:16:40;9.53;;;8.63;;
15055;SDS011;7626;42.674;23.284;2023-05-10T11:19:09;9.50;;;8.60;;
15055;SDS011;7626;42.674;23.284;2023-05-10T11:21:45;9.07;;;8.17;;
15055;SDS011;7626;42.674;23.284;2023-05-10T11:24:13;8.70;;;7.73;;
15055;SDS011;7626;42.674;23.284;2023-05-10T11:26:41;8.30;;;7.60;;
15055;SDS011;7626;42.674;23.284;2023-05-10T11:29:09;8.50;;;7.60;;
15055;SDS011;7626;42.674;23.284;2023-05-10T11:31:41;8.40;;;7.60;;
15055;SDS011;7626;42.674;23.284;2023-05-10T11:34:10;8.73;;;7.93;;
15055;SDS011;7626;42.674;23.284;2023-05-10T11:36:39;9.30;;;8.33;;
15055;SDS011;7626;42.674;23.284;2023-05-10T11:39:20;8.60;;;7.80;;
15055;SDS011;7626;42.674;23.284;2023-05-10T11:41:48;9.20;;;8.40;;
15055;SDS011;7626;42.674;23.284;2023-05-10T11:44:17;9.03;;;8.13;;
15055;SDS011;7626;42.674;23.284;2023-05-10T11:46:43;8.60;;;7.80;;
15055;SDS011;7626;42.674;23.284;2023-05-10T11:49:12;8.00;;;7.20;;
15055;SDS011;7626;42.674;23.284;2023-05-10T11:51:39;7.93;;;7.13;;
15055;SDS011;7626;42.674;23.284;2023-05-10T11:54:10;8.63;;;7.80;;
15055;SDS011;7626;42.674;23.284;2023-05-10T11:56:38;9.77;;;8.23;;
15055;SDS011;7626;42.674;23.284;2023-05-10T11:59:05;8.70;;;7.90;;
15055;SDS011;7626;42.674;23.284;2023-05-10T12:01:33;8.40;;;7.60;;
15055;SDS011;7626;42.674;23.284;2023-05-10T12:04:01;9.03;;;8.10;;
15055;SDS011;7626;42.674;23.284;2023-05-10T12:06:30;10.00;;;7.67;;
15055;SDS011;7626;42.674;23.284;2023-05-10T12:09:01;9.63;;;7.90;;
15055;SDS011;7626;42.674;23.284;2023-05-10T12:11:38;8.77;;;7.97;;
15055;SDS011;7626;42.674;23.284;2023-05-10T12:14:08;9.77;;;8.77;;
15055;SDS011;7626;42.674;23.284;2023-05-10T12:16:37;9.77;;;8.97;;
15055;SDS011;7626;42.674;23.284;2023-05-10T12:19:05;9.93;;;8.97;;
15055;SDS011;7626;42.674;23.284;2023-05-10T12:21:33;12.33;;;9.53;;
15055;SDS011;7626;42.674;23.284;2023-05-10T12:24:01;10.10;;;9.20;;
15055;SDS011;7626;42.674;23.284;2023-05-10T12:26:30;10.63;;;9.30;;
15055;SDS011;7626;42.674;23.284;2023-05-10T12:31:51;9.93;;;8.97;;
15055;SDS011;7626;42.674;23.284;2023-05-10T12:34:30;9.67;;;8.63;;
15055;SDS011;7626;42.674;23.284;2023-05-10T12:37:16;10.47;;;9.37;;
15055;SDS011;7626;42.674;23.284;2023-05-10T12:39:44;9.73;;;8.73;;
15055;SDS011;7626;42.674;23.284;2023-05-10T12:42:12;9.97;;;9.07;;
15055;SDS011;7626;42.674;23.284;2023-05-10T12:44:40;10.53;;;9.37;;
15055;SDS011;7626;42.674;23.284;2023-05-10T12:47:12;9.93;;;9.00;;
15055;SDS011;7626;42.674;23.284;2023-05-10T12:49:39;11.43;;;10.40;;
15055;SDS011;7626;42.674;23.284;2023-05-10T12:52:08;12.03;;;10.77;;
15055;SDS011;7626;42.674;23.284;2023-05-10T12:54:36;11.40;;;10.20;;
15055;SDS011;7626;42.674;23.284;2023-05-10T12:57:04;12.53;;;10.17;;
15055;SDS011;7626;42.674;23.284;2023-05-10T12:59:31;10.97;;;9.90;;
15055;SDS011;7626;42.674;23.284;2023-05-10T13:01:59;10.37;;;9.47;;
15055;SDS011;7626;42.674;23.284;2023-05-10T13:04:29;10.37;;;9.37;;
15055;SDS011;7626;42.674;23.284;2023-05-10T13:06:56;11.63;;;10.57;;
15055;SDS011;7626;42.674;23.284;2023-05-10T13:09:25;10.90;;;9.90;;
15055;SDS011;7626;42.674;23.284;2023-05-10T13:11:55;10.03;;;9.13;;
15055;SDS011;7626;42.674;23.284;2023-05-10T13:14:23;10.80;;;9.80;;
15055;SDS011;7626;42.674;23.284;2023-05-10T13:16:52;10.47;;;9.50;;
15055;SDS011;7626;42.674;23.284;2023-05-10T13:19:20;9.57;;;8.77;;
15055;SDS011;7626;42.674;23.284;2023-05-10T13:21:49;9.87;;;8.97;;
15055;SDS011;7626;42.674;23.284;2023-05-10T13:24:16;11.87;;;9.53;;
15055;SDS011;7626;42.674;23.284;2023-05-10T13:26:44;10.20;;;9.27;;
15055;SDS011;7626;42.674;23.284;2023-05-10T13:29:12;11.03;;;10.03;;
15055;SDS011;7626;42.674;23.284;2023-05-10T13:31:39;11.13;;;9.87;;
15055;SDS011;7626;42.674;23.284;2023-05-10T13:34:07;10.17;;;9.20;;
15055;SDS011;7626;42.674;23.284;2023-05-10T13:36:37;10.23;;;9.23;;
15055;SDS011;7626;42.674;23.284;2023-05-10T13:39:06;11.80;;;10.70;;
15055;SDS011;7626;42.674;23.284;2023-05-10T13:41:35;10.60;;;9.60;;
15055;SDS011;7626;42.674;23.284;2023-05-10T13:44:03;10.37;;;9.37;;
15055;SDS011;7626;42.674;23.284;2023-05-10T13:46:30;10.03;;;9.03;;
15055;SDS011;7626;42.674;23.284;2023-05-10T13:48:57;10.17;;;9.23;;
15055;SDS011;7626;42.674;23.284;2023-05-10T13:51:24;10.53;;;9.47;;
15055;SDS011;7626;42.674;23.284;2023-05-10T13:53:54;10.83;;;9.73;;
15055;SDS011;7626;42.674;23.284;2023-05-10T13:56:26;10.07;;;9.07;;
15055;SDS011;7626;42.674;23.284;2023-05-10T13:58:54;11.40;;;9.93;;
15055;SDS011;7626;42.674;23.284;2023-05-10T14:01:20;11.13;;;10.00;;
15055;SDS011;7626;42.674;23.284;2023-05-10T14:03:48;10.80;;;9.10;;
15055;SDS011;7626;42.674;23.284;2023-05-10T14:06:16;10.10;;;9.10;;
15055;SDS011;7626;42.674;23.284;2023-05-10T14:08:43;10.03;;;9.00;;
15055;SDS011;7626;42.674;23.284;2023-05-10T14:11:11;10.63;;;9.53;;
15055;SDS011;7626;42.674;23.284;2023-05-10T14:13:41;11.13;;;10.07;;
15055;SDS011;7626;42.674;23.284;2023-05-10T14:16:08;11.10;;;9.30;;
15055;SDS011;7626;42.674;23.284;2023-05-10T14:18:40;10.50;;;9.50;;
15055;SDS011;7626;42.674;23.284;2023-05-10T14:21:08;10.43;;;9.43;;
15055;SDS011;7626;42.674;23.284;2023-05-10T14:23:36;9.77;;;8.77;;
15055;SDS011;7626;42.674;23.284;2023-05-10T14:26:04;10.77;;;8.83;;
15055;SDS011;7626;42.674;23.284;2023-05-10T14:28:32;9.63;;;8.77;;
15055;SDS011;7626;42.674;23.284;2023-05-10T14:31:01;10.43;;;9.53;;
15055;SDS011;7626;42.674;23.284;2023-05-10T14:33:29;10.60;;;9.00;;
15055;SDS011;7626;42.674;23.284;2023-05-10T14:35:57;9.70;;;8.67;;
15055;SDS011;7626;42.674;23.284;2023-05-10T14:38:26;9.80;;;8.90;;
15055;SDS011;7626;42.674;23.284;2023-05-10T14:40:54;10.30;;;9.30;;
15055;SDS011;7626;42.674;23.284;2023-05-10T14:43:22;10.07;;;9.17;;
15055;SDS011;7626;42.674;23.284;2023-05-10T14:45:49;10.20;;;9.20;;
15055;SDS011;7626;42.674;23.284;2023-05-10T14:48:19;9.47;;;8.57;;
15055;SDS011;7626;42.674;23.284;2023-05-10T14:50:47;9.87;;;8.87;;
15055;SDS011;7626;42.674;23.284;2023-05-10T14:53:16;12.20;;;11.00;;
15055;SDS011;7626;42.674;23.284;2023-05-10T14:55:44;12.63;;;10.57;;
15055;SDS011;7626;42.674;23.284;2023-05-10T14:58:12;11.67;;;9.73;;
15055;SDS011;7626;42.674;23.284;2023-05-10T15:00:40;10.40;;;9.40;;
15055;SDS011;7626;42.674;23.284;2023-05-10T15:03:08;9.97;;;8.70;;
15055;SDS011;7626;42.674;23.284;2023-05-10T15:05:37;10.13;;;9.03;;
15055;SDS011;7626;42.674;23.284;2023-05-10T15:08:05;9.67;;;8.60;;